Terminal Aerodrome Forecast
Issued by NWS Grand Rapids, MI

Home | Current Version | Previous Version | Text Only | Print | Product List | Glossary On
Versions: 1 2 3 4 5 6 7 8 9 10 11 12 13 14 15 16
000
FTUS43 KGRR 262321
TAFGRR
TAF
KGRR 262321Z 2700/2724 28012KT P6SM FEW040 BKN090
     FM270400 30008KT P6SM VCSH BKN040
     FM270800 30006KT P6SM SKC
     FM271400 27009KT P6SM SCT040
     FM271600 28012KT P6SM BKN050=

USA.gov is the U.S. government's official web portal to all federal, state and local government web resources and services.